sensor_id;sensor_type;location;lat;lon;timestamp;P1;durP1;ratioP1;P2;durP2;ratioP2
72949;SDS011;64868;45.710;9.590;2023-10-09T00:01:51;11.70;;;2.00;;
72949;SDS011;64868;45.710;9.590;2023-10-09T00:04:22;13.43;;;2.05;;
72949;SDS011;64868;45.710;9.590;2023-10-09T00:06:54;13.30;;;2.47;;
72949;SDS011;64868;45.710;9.590;2023-10-09T00:09:27;17.63;;;2.63;;
72949;SDS011;64868;45.710;9.590;2023-10-09T00:12:00;11.57;;;2.13;;
72949;SDS011;64868;45.710;9.590;2023-10-09T00:14:37;13.75;;;1.98;;
72949;SDS011;64868;45.710;9.590;2023-10-09T00:17:12;17.95;;;2.85;;
72949;SDS011;64868;45.710;9.590;2023-10-09T00:19:42;18.58;;;2.30;;
72949;SDS011;64868;45.710;9.590;2023-10-09T00:22:15;15.70;;;2.03;;
72949;SDS011;64868;45.710;9.590;2023-10-09T00:24:57;15.93;;;2.30;;
72949;SDS011;64868;45.710;9.590;2023-10-09T00:27:42;12.48;;;2.03;;
72949;SDS011;64868;45.710;9.590;2023-10-09T00:30:15;14.85;;;1.92;;
72949;SDS011;64868;45.710;9.590;2023-10-09T00:32:48;14.57;;;2.25;;
72949;SDS011;64868;45.710;9.590;2023-10-09T00:35:40;13.20;;;2.40;;
72949;SDS011;64868;45.710;9.590;2023-10-09T00:38:21;13.18;;;2.30;;
72949;SDS011;64868;45.710;9.590;2023-10-09T00:40:54;13.15;;;2.20;;
72949;SDS011;64868;45.710;9.590;2023-10-09T00:43:30;14.52;;;2.03;;
72949;SDS011;64868;45.710;9.590;2023-10-09T00:46:03;20.80;;;2.08;;
72949;SDS011;64868;45.710;9.590;2023-10-09T00:48:52;16.52;;;2.03;;
72949;SDS011;64868;45.710;9.590;2023-10-09T00:51:25;13.48;;;1.75;;
72949;SDS011;64868;45.710;9.590;2023-10-09T00:54:02;14.25;;;2.50;;
72949;SDS011;64868;45.710;9.590;2023-10-09T00:56:40;13.13;;;2.15;;
72949;SDS011;64868;45.710;9.590;2023-10-09T00:59:16;14.05;;;1.92;;
72949;SDS011;64868;45.710;9.590;2023-10-09T01:01:51;16.75;;;1.98;;
72949;SDS011;64868;45.710;9.590;2023-10-09T01:04:30;10.02;;;1.83;;
72949;SDS011;64868;45.710;9.590;2023-10-09T01:07:07;13.63;;;2.15;;
72949;SDS011;64868;45.710;9.590;2023-10-09T01:09:48;14.32;;;2.13;;
72949;SDS011;64868;45.710;9.590;2023-10-09T01:12:20;16.80;;;2.28;;
72949;SDS011;64868;45.710;9.590;2023-10-09T01:14:54;14.75;;;2.10;;
72949;SDS011;64868;45.710;9.590;2023-10-09T01:17:27;12.02;;;1.83;;
72949;SDS011;64868;45.710;9.590;2023-10-09T01:20:02;14.23;;;2.50;;
72949;SDS011;64868;45.710;9.590;2023-10-09T01:22:43;13.18;;;1.90;;
72949;SDS011;64868;45.710;9.590;2023-10-09T01:25:17;13.55;;;2.38;;
72949;SDS011;64868;45.710;9.590;2023-10-09T01:27:47;12.18;;;2.55;;
72949;SDS011;64868;45.710;9.590;2023-10-09T01:30:20;11.07;;;1.90;;
72949;SDS011;64868;45.710;9.590;2023-10-09T01:32:53;10.82;;;2.13;;
72949;SDS011;64868;45.710;9.590;2023-10-09T01:35:25;10.85;;;1.80;;
72949;SDS011;64868;45.710;9.590;2023-10-09T01:38:00;12.73;;;2.30;;
72949;SDS011;64868;45.710;9.590;2023-10-09T01:40:37;13.55;;;2.50;;
72949;SDS011;64868;45.710;9.590;2023-10-09T01:43:08;13.85;;;2.25;;
72949;SDS011;64868;45.710;9.590;2023-10-09T01:45:38;14.13;;;2.10;;
72949;SDS011;64868;45.710;9.590;2023-10-09T01:48:13;15.55;;;2.20;;
72949;SDS011;64868;45.710;9.590;2023-10-09T01:50:43;17.30;;;2.45;;
72949;SDS011;64868;45.710;9.590;2023-10-09T01:53:16;17.92;;;2.58;;
72949;SDS011;64868;45.710;9.590;2023-10-09T01:55:49;12.70;;;2.28;;
72949;SDS011;64868;45.710;9.590;2023-10-09T01:58:22;13.10;;;2.35;;
72949;SDS011;64868;45.710;9.590;2023-10-09T02:00:55;14.85;;;2.63;;
72949;SDS011;64868;45.710;9.590;2023-10-09T02:03:29;12.18;;;2.33;;
72949;SDS011;64868;45.710;9.590;2023-10-09T02:06:04;12.48;;;1.80;;
72949;SDS011;64868;45.710;9.590;2023-10-09T02:08:51;11.25;;;2.10;;
72949;SDS011;64868;45.710;9.590;2023-10-09T02:11:24;11.02;;;1.90;;
72949;SDS011;64868;45.710;9.590;2023-10-09T02:14:06;15.05;;;2.15;;
72949;SDS011;64868;45.710;9.590;2023-10-09T02:16:51;15.80;;;2.10;;
72949;SDS011;64868;45.710;9.590;2023-10-09T02:19:33;14.45;;;1.98;;
72949;SDS011;64868;45.710;9.590;2023-10-09T02:22:07;11.95;;;1.60;;
72949;SDS011;64868;45.710;9.590;2023-10-09T02:24:43;10.75;;;1.98;;
72949;SDS011;64868;45.710;9.590;2023-10-09T02:27:23;10.57;;;1.75;;
72949;SDS011;64868;45.710;9.590;2023-10-09T02:30:29;13.30;;;2.10;;
72949;SDS011;64868;45.710;9.590;2023-10-09T02:33:01;10.70;;;1.88;;
72949;SDS011;64868;45.710;9.590;2023-10-09T02:38:09;18.02;;;2.50;;
72949;SDS011;64868;45.710;9.590;2023-10-09T02:40:42;13.23;;;1.73;;
72949;SDS011;64868;45.710;9.590;2023-10-09T02:46:07;9.88;;;2.10;;
72949;SDS011;64868;45.710;9.590;2023-10-09T02:48:54;13.93;;;2.00;;
72949;SDS011;64868;45.710;9.590;2023-10-09T02:51:27;12.10;;;2.13;;
72949;SDS011;64868;45.710;9.590;2023-10-09T02:54:08;15.13;;;2.40;;
72949;SDS011;64868;45.710;9.590;2023-10-09T02:56:51;10.70;;;1.70;;
72949;SDS011;64868;45.710;9.590;2023-10-09T02:59:34;14.98;;;1.92;;
72949;SDS011;64868;45.710;9.590;2023-10-09T03:02:12;12.50;;;2.25;;
72949;SDS011;64868;45.710;9.590;2023-10-09T03:04:45;11.13;;;2.05;;
72949;SDS011;64868;45.710;9.590;2023-10-09T03:07:17;9.45;;;1.90;;
72949;SDS011;64868;45.710;9.590;2023-10-09T03:09:50;12.23;;;2.40;;
72949;SDS011;64868;45.710;9.590;2023-10-09T03:12:23;14.07;;;2.45;;
72949;SDS011;64868;45.710;9.590;2023-10-09T03:14:56;13.52;;;1.75;;
72949;SDS011;64868;45.710;9.590;2023-10-09T03:17:29;12.43;;;2.28;;
72949;SDS011;64868;45.710;9.590;2023-10-09T03:20:02;13.63;;;2.55;;
72949;SDS011;64868;45.710;9.590;2023-10-09T03:22:39;12.40;;;1.98;;
72949;SDS011;64868;45.710;9.590;2023-10-09T03:25:13;13.30;;;2.75;;
72949;SDS011;64868;45.710;9.590;2023-10-09T03:27:44;12.88;;;2.08;;
72949;SDS011;64868;45.710;9.590;2023-10-09T03:30:16;13.90;;;2.28;;
72949;SDS011;64868;45.710;9.590;2023-10-09T03:32:52;11.15;;;2.00;;
72949;SDS011;64868;45.710;9.590;2023-10-09T03:35:25;15.65;;;2.50;;
72949;SDS011;64868;45.710;9.590;2023-10-09T03:37:58;12.13;;;1.75;;
72949;SDS011;64868;45.710;9.590;2023-10-09T03:40:45;12.75;;;1.92;;
72949;SDS011;64868;45.710;9.590;2023-10-09T03:43:15;14.45;;;2.35;;
72949;SDS011;64868;45.710;9.590;2023-10-09T03:45:48;10.88;;;1.80;;
72949;SDS011;64868;45.710;9.590;2023-10-09T03:48:24;12.48;;;2.30;;
72949;SDS011;64868;45.710;9.590;2023-10-09T03:50:59;17.17;;;2.22;;
72949;SDS011;64868;45.710;9.590;2023-10-09T03:53:41;11.00;;;1.90;;
72949;SDS011;64868;45.710;9.590;2023-10-09T03:56:11;17.17;;;2.53;;
72949;SDS011;64868;45.710;9.590;2023-10-09T03:58:44;13.93;;;2.42;;
72949;SDS011;64868;45.710;9.590;2023-10-09T04:01:17;13.88;;;2.47;;
72949;SDS011;64868;45.710;9.590;2023-10-09T04:03:59;12.55;;;2.20;;
72949;SDS011;64868;45.710;9.590;2023-10-09T04:06:30;14.63;;;2.55;;
72949;SDS011;64868;45.710;9.590;2023-10-09T04:09:06;17.92;;;2.20;;
72949;SDS011;64868;45.710;9.590;2023-10-09T04:11:49;14.25;;;2.17;;
72949;SDS011;64868;45.710;9.590;2023-10-09T04:14:37;14.40;;;2.40;;
72949;SDS011;64868;45.710;9.590;2023-10-09T04:17:16;14.82;;;2.05;;
72949;SDS011;64868;45.710;9.590;2023-10-09T04:19:55;10.02;;;2.20;;
72949;SDS011;64868;45.710;9.590;2023-10-09T04:22:44;14.63;;;2.58;;
72949;SDS011;64868;45.710;9.590;2023-10-09T04:25:19;13.70;;;1.70;;
72949;SDS011;64868;45.710;9.590;2023-10-09T04:27:55;12.07;;;2.33;;
72949;SDS011;64868;45.710;9.590;2023-10-09T04:30:46;14.30;;;2.40;;
72949;SDS011;64868;45.710;9.590;2023-10-09T04:33:22;17.08;;;2.10;;
72949;SDS011;64868;45.710;9.590;2023-10-09T04:36:05;14.80;;;2.17;;
72949;SDS011;64868;45.710;9.590;2023-10-09T04:39:00;13.00;;;2.40;;
72949;SDS011;64868;45.710;9.590;2023-10-09T04:41:36;9.98;;;2.03;;
72949;SDS011;64868;45.710;9.590;2023-10-09T04:44:13;15.00;;;2.70;;
72949;SDS011;64868;45.710;9.590;2023-10-09T04:46:50;15.50;;;2.53;;
72949;SDS011;64868;45.710;9.590;2023-10-09T04:49:38;16.98;;;3.08;;
72949;SDS011;64868;45.710;9.590;2023-10-09T04:52:24;11.38;;;2.13;;
72949;SDS011;64868;45.710;9.590;2023-10-09T04:54:58;12.48;;;2.03;;
72949;SDS011;64868;45.710;9.590;2023-10-09T04:57:32;12.82;;;1.85;;
72949;SDS011;64868;45.710;9.590;2023-10-09T05:00:34;16.77;;;2.42;;
72949;SDS011;64868;45.710;9.590;2023-10-09T05:03:14;11.45;;;1.90;;
72949;SDS011;64868;45.710;9.590;2023-10-09T05:06:10;12.73;;;2.40;;
72949;SDS011;64868;45.710;9.590;2023-10-09T05:09:10;14.00;;;2.63;;
72949;SDS011;64868;45.710;9.590;2023-10-09T05:11:40;16.20;;;2.55;;
72949;SDS011;64868;45.710;9.590;2023-10-09T05:14:34;14.65;;;2.22;;
72949;SDS011;64868;45.710;9.590;2023-10-09T05:17:12;11.25;;;2.13;;
72949;SDS011;64868;45.710;9.590;2023-10-09T05:19:52;16.38;;;2.55;;
72949;SDS011;64868;45.710;9.590;2023-10-09T05:22:42;18.48;;;2.70;;
72949;SDS011;64868;45.710;9.590;2023-10-09T05:25:24;14.65;;;2.50;;
72949;SDS011;64868;45.710;9.590;2023-10-09T05:28:13;13.45;;;2.10;;
72949;SDS011;64868;45.710;9.590;2023-10-09T05:30:55;15.10;;;2.53;;
72949;SDS011;64868;45.710;9.590;2023-10-09T05:33:57;12.32;;;2.20;;
72949;SDS011;64868;45.710;9.590;2023-10-09T05:36:30;23.83;;;2.95;;
72949;SDS011;64868;45.710;9.590;2023-10-09T05:39:02;15.52;;;2.20;;
72949;SDS011;64868;45.710;9.590;2023-10-09T05:41:51;17.70;;;2.13;;
72949;SDS011;64868;45.710;9.590;2023-10-09T05:47:21;18.63;;;2.72;;
72949;SDS011;64868;45.710;9.590;2023-10-09T05:50:17;17.92;;;2.30;;
72949;SDS011;64868;45.710;9.590;2023-10-09T05:52:53;14.60;;;2.20;;
72949;SDS011;64868;45.710;9.590;2023-10-09T05:55:32;13.68;;;2.55;;
72949;SDS011;64868;45.710;9.590;2023-10-09T05:58:21;21.73;;;3.20;;
72949;SDS011;64868;45.710;9.590;2023-10-09T06:01:23;19.33;;;3.42;;
72949;SDS011;64868;45.710;9.590;2023-10-09T06:04:12;15.50;;;2.42;;
72949;SDS011;64868;45.710;9.590;2023-10-09T06:06:45;13.18;;;2.47;;
72949;SDS011;64868;45.710;9.590;2023-10-09T06:09:28;17.23;;;2.33;;
72949;SDS011;64868;45.710;9.590;2023-10-09T06:12:16;14.35;;;2.50;;
72949;SDS011;64868;45.710;9.590;2023-10-09T06:14:59;19.13;;;2.85;;
72949;SDS011;64868;45.710;9.590;2023-10-09T06:17:59;14.18;;;2.47;;
72949;SDS011;64868;45.710;9.590;2023-10-09T06:20:47;12.75;;;2.00;;
72949;SDS011;64868;45.710;9.590;2023-10-09T06:23:36;16.40;;;2.92;;
72949;SDS011;64868;45.710;9.590;2023-10-09T06:26:24;16.55;;;2.75;;
72949;SDS011;64868;45.710;9.590;2023-10-09T06:28:54;12.07;;;1.90;;
72949;SDS011;64868;45.710;9.590;2023-10-09T06:31:41;14.15;;;2.25;;
72949;SDS011;64868;45.710;9.590;2023-10-09T06:34:43;17.85;;;2.45;;
72949;SDS011;64868;45.710;9.590;2023-10-09T06:37:24;13.75;;;2.30;;
72949;SDS011;64868;45.710;9.590;2023-10-09T06:40:00;18.52;;;2.55;;
72949;SDS011;64868;45.710;9.590;2023-10-09T06:42:38;15.55;;;3.00;;
72949;SDS011;64868;45.710;9.590;2023-10-09T06:45:18;15.18;;;2.90;;
72949;SDS011;64868;45.710;9.590;2023-10-09T06:47:55;15.70;;;2.90;;
72949;SDS011;64868;45.710;9.590;2023-10-09T06:50:54;12.32;;;2.08;;
72949;SDS011;64868;45.710;9.590;2023-10-09T06:54:01;18.05;;;3.00;;
72949;SDS011;64868;45.710;9.590;2023-10-09T06:56:35;17.67;;;2.47;;
72949;SDS011;64868;45.710;9.590;2023-10-09T06:59:08;15.30;;;2.70;;
72949;SDS011;64868;45.710;9.590;2023-10-09T07:01:49;14.35;;;2.30;;
72949;SDS011;64868;45.710;9.590;2023-10-09T07:04:38;16.73;;;2.63;;
72949;SDS011;64868;45.710;9.590;2023-10-09T07:07:08;14.80;;;2.42;;
72949;SDS011;64868;45.710;9.590;2023-10-09T07:09:40;13.43;;;2.00;;
72949;SDS011;64868;45.710;9.590;2023-10-09T07:12:13;15.20;;;2.80;;
72949;SDS011;64868;45.710;9.590;2023-10-09T07:14:53;16.63;;;3.05;;
72949;SDS011;64868;45.710;9.590;2023-10-09T07:17:23;15.25;;;2.70;;
72949;SDS011;64868;45.710;9.590;2023-10-09T07:20:03;12.93;;;2.70;;
72949;SDS011;64868;45.710;9.590;2023-10-09T07:22:39;18.67;;;2.22;;
72949;SDS011;64868;45.710;9.590;2023-10-09T07:25:16;16.73;;;2.50;;
72949;SDS011;64868;45.710;9.590;2023-10-09T07:28:09;17.35;;;3.03;;
72949;SDS011;64868;45.710;9.590;2023-10-09T07:30:56;17.15;;;2.70;;
72949;SDS011;64868;45.710;9.590;2023-10-09T07:33:30;19.40;;;3.05;;
72949;SDS011;64868;45.710;9.590;2023-10-09T08:03:39;15.90;;;2.90;;
72949;SDS011;64868;45.710;9.590;2023-10-09T08:33:05;17.15;;;3.25;;
72949;SDS011;64868;45.710;9.590;2023-10-09T08:35:57;11.32;;;2.50;;
72949;SDS011;64868;45.710;9.590;2023-10-09T08:41:08;13.07;;;2.60;;
72949;SDS011;64868;45.710;9.590;2023-10-09T08:43:51;14.68;;;3.25;;
72949;SDS011;64868;45.710;9.590;2023-10-09T08:46:40;16.52;;;2.83;;
72949;SDS011;64868;45.710;9.590;2023-10-09T08:52:04;15.90;;;2.65;;
72949;SDS011;64868;45.710;9.590;2023-10-09T08:54:38;19.25;;;3.67;;
72949;SDS011;64868;45.710;9.590;2023-10-09T08:57:13;16.55;;;3.45;;
72949;SDS011;64868;45.710;9.590;2023-10-09T08:59:47;15.48;;;3.38;;
72949;SDS011;64868;45.710;9.590;2023-10-09T09:02:36;15.05;;;3.05;;
72949;SDS011;64868;45.710;9.590;2023-10-09T09:05:21;19.45;;;3.45;;
72949;SDS011;64868;45.710;9.590;2023-10-09T09:07:51;16.38;;;3.13;;
72949;SDS011;64868;45.710;9.590;2023-10-09T09:10:30;16.17;;;2.80;;
72949;SDS011;64868;45.710;9.590;2023-10-09T09:13:18;14.13;;;3.08;;
72949;SDS011;64868;45.710;9.590;2023-10-09T09:15:51;14.48;;;3.40;;
72949;SDS011;64868;45.710;9.590;2023-10-09T09:18:51;19.05;;;3.60;;
72949;SDS011;64868;45.710;9.590;2023-10-09T09:21:30;12.30;;;3.33;;
72949;SDS011;64868;45.710;9.590;2023-10-09T09:24:19;14.23;;;3.83;;
72949;SDS011;64868;45.710;9.590;2023-10-09T09:26:52;14.20;;;3.30;;
72949;SDS011;64868;45.710;9.590;2023-10-09T09:29:40;14.23;;;3.08;;
72949;SDS011;64868;45.710;9.590;2023-10-09T09:32:19;14.18;;;3.13;;
72949;SDS011;64868;45.710;9.590;2023-10-09T09:37:55;16.40;;;3.00;;
72949;SDS011;64868;45.710;9.590;2023-10-09T09:40:31;13.20;;;3.47;;
72949;SDS011;64868;45.710;9.590;2023-10-09T09:46:14;17.25;;;3.17;;
72949;SDS011;64868;45.710;9.590;2023-10-09T09:48:44;13.57;;;3.25;;
72949;SDS011;64868;45.710;9.590;2023-10-09T09:51:33;18.65;;;3.40;;
72949;SDS011;64868;45.710;9.590;2023-10-09T09:54:06;17.35;;;3.90;;
72949;SDS011;64868;45.710;9.590;2023-10-09T09:56:41;16.15;;;3.33;;
72949;SDS011;64868;45.710;9.590;2023-10-09T10:02:37;13.73;;;3.35;;
72949;SDS011;64868;45.710;9.590;2023-10-09T10:05:11;16.00;;;3.30;;
72949;SDS011;64868;45.710;9.590;2023-10-09T10:07:45;19.70;;;3.70;;
72949;SDS011;64868;45.710;9.590;2023-10-09T10:16:35;17.77;;;3.70;;
72949;SDS011;64868;45.710;9.590;2023-10-09T10:20:16;17.02;;;3.55;;
72949;SDS011;64868;45.710;9.590;2023-10-09T10:22:41;14.70;;;3.72;;
72949;SDS011;64868;45.710;9.590;2023-10-09T10:25:34;20.23;;;3.70;;
72949;SDS011;64868;45.710;9.590;2023-10-09T10:31:17;19.65;;;3.65;;
72949;SDS011;64868;45.710;9.590;2023-10-09T10:34:03;19.13;;;3.10;;
72949;SDS011;64868;45.710;9.590;2023-10-09T10:36:37;19.80;;;3.65;;
72949;SDS011;64868;45.710;9.590;2023-10-09T10:39:11;15.82;;;3.28;;
72949;SDS011;64868;45.710;9.590;2023-10-09T10:42:00;22.75;;;4.32;;
72949;SDS011;64868;45.710;9.590;2023-10-09T10:44:33;17.55;;;3.72;;
72949;SDS011;64868;45.710;9.590;2023-10-09T10:47:24;19.10;;;3.80;;
72949;SDS011;64868;45.710;9.590;2023-10-09T10:50:01;14.63;;;3.10;;
72949;SDS011;64868;45.710;9.590;2023-10-09T10:56:02;23.45;;;3.85;;
72949;SDS011;64868;45.710;9.590;2023-10-09T10:58:55;16.92;;;3.75;;
72949;SDS011;64868;45.710;9.590;2023-10-09T11:01:34;17.02;;;3.83;;
72949;SDS011;64868;45.710;9.590;2023-10-09T11:04:25;19.02;;;3.45;;
72949;SDS011;64868;45.710;9.590;2023-10-09T11:07:28;20.50;;;3.60;;
72949;SDS011;64868;45.710;9.590;2023-10-09T11:09:58;17.00;;;3.40;;
72949;SDS011;64868;45.710;9.590;2023-10-09T11:15:57;19.30;;;2.85;;
72949;SDS011;64868;45.710;9.590;2023-10-09T11:18:42;16.95;;;2.80;;
72949;SDS011;64868;45.710;9.590;2023-10-09T11:21:15;18.33;;;3.55;;
72949;SDS011;64868;45.710;9.590;2023-10-09T11:23:46;19.30;;;3.40;;
72949;SDS011;64868;45.710;9.590;2023-10-09T11:26:51;16.10;;;3.00;;
72949;SDS011;64868;45.710;9.590;2023-10-09T11:29:23;16.20;;;3.35;;
72949;SDS011;64868;45.710;9.590;2023-10-09T11:32:17;15.05;;;2.95;;
72949;SDS011;64868;45.710;9.590;2023-10-09T11:35:12;15.18;;;2.75;;
72949;SDS011;64868;45.710;9.590;2023-10-09T11:37:56;22.67;;;3.50;;
72949;SDS011;64868;45.710;9.590;2023-10-09T11:40:29;20.25;;;3.63;;
72949;SDS011;64868;45.710;9.590;2023-10-09T11:43:20;17.25;;;3.67;;
72949;SDS011;64868;45.710;9.590;2023-10-09T11:46:10;15.73;;;3.00;;
72949;SDS011;64868;45.710;9.590;2023-10-09T11:49:04;19.05;;;3.38;;
72949;SDS011;64868;45.710;9.590;2023-10-09T11:52:06;21.42;;;3.22;;
72949;SDS011;64868;45.710;9.590;2023-10-09T11:54:38;17.17;;;3.08;;
72949;SDS011;64868;45.710;9.590;2023-10-09T11:57:11;17.80;;;3.47;;
72949;SDS011;64868;45.710;9.590;2023-10-09T11:59:44;16.05;;;3.15;;
72949;SDS011;64868;45.710;9.590;2023-10-09T12:02:54;16.15;;;3.00;;
72949;SDS011;64868;45.710;9.590;2023-10-09T12:05:32;21.50;;;3.30;;
72949;SDS011;64868;45.710;9.590;2023-10-09T12:08:05;16.98;;;3.47;;
72949;SDS011;64868;45.710;9.590;2023-10-09T12:13:35;17.30;;;3.78;;
72949;SDS011;64868;45.710;9.590;2023-10-09T12:16:07;22.95;;;3.78;;
72949;SDS011;64868;45.710;9.590;2023-10-09T12:22:05;21.40;;;3.90;;
72949;SDS011;64868;45.710;9.590;2023-10-09T12:24:43;18.73;;;3.53;;
72949;SDS011;64868;45.710;9.590;2023-10-09T12:27:16;24.08;;;4.00;;
72949;SDS011;64868;45.710;9.590;2023-10-09T12:29:47;19.58;;;3.83;;
72949;SDS011;64868;45.710;9.590;2023-10-09T12:32:36;18.17;;;3.42;;
72949;SDS011;64868;45.710;9.590;2023-10-09T12:35:09;19.00;;;3.97;;
72949;SDS011;64868;45.710;9.590;2023-10-09T12:40:36;19.58;;;4.03;;
72949;SDS011;64868;45.710;9.590;2023-10-09T12:43:08;17.20;;;3.42;;
72949;SDS011;64868;45.710;9.590;2023-10-09T12:45:57;20.27;;;3.58;;
72949;SDS011;64868;45.710;9.590;2023-10-09T12:48:33;18.17;;;4.00;;
72949;SDS011;64868;45.710;9.590;2023-10-09T12:51:03;17.90;;;3.63;;
72949;SDS011;64868;45.710;9.590;2023-10-09T12:53:38;22.27;;;4.00;;
72949;SDS011;64868;45.710;9.590;2023-10-09T12:56:11;15.70;;;3.13;;
72949;SDS011;64868;45.710;9.590;2023-10-09T12:58:45;23.92;;;4.10;;
72949;SDS011;64868;45.710;9.590;2023-10-09T13:01:24;23.60;;;3.75;;
72949;SDS011;64868;45.710;9.590;2023-10-09T13:03:59;17.85;;;3.65;;
72949;SDS011;64868;45.710;9.590;2023-10-09T13:06:38;26.70;;;3.90;;
72949;SDS011;64868;45.710;9.590;2023-10-09T13:09:27;22.58;;;3.90;;
72949;SDS011;64868;45.710;9.590;2023-10-09T13:12:03;18.60;;;3.60;;
72949;SDS011;64868;45.710;9.590;2023-10-09T13:14:36;26.08;;;3.85;;
72949;SDS011;64868;45.710;9.590;2023-10-09T13:17:08;22.15;;;3.88;;
72949;SDS011;64868;45.710;9.590;2023-10-09T13:19:39;13.90;;;2.92;;
72949;SDS011;64868;45.710;9.590;2023-10-09T13:22:09;15.50;;;3.05;;
72949;SDS011;64868;45.710;9.590;2023-10-09T13:24:45;22.10;;;3.65;;
72949;SDS011;64868;45.710;9.590;2023-10-09T13:27:16;14.25;;;3.30;;
72949;SDS011;64868;45.710;9.590;2023-10-09T13:29:49;14.80;;;3.10;;
72949;SDS011;64868;45.710;9.590;2023-10-09T13:32:27;23.00;;;3.75;;
72949;SDS011;64868;45.710;9.590;2023-10-09T13:35:01;20.75;;;3.40;;
72949;SDS011;64868;45.710;9.590;2023-10-09T13:37:34;19.52;;;3.08;;
72949;SDS011;64868;45.710;9.590;2023-10-09T13:40:05;14.55;;;3.00;;
72949;SDS011;64868;45.710;9.590;2023-10-09T13:42:38;14.82;;;3.22;;
72949;SDS011;64868;45.710;9.590;2023-10-09T13:45:10;21.08;;;3.40;;
72949;SDS011;64868;45.710;9.590;2023-10-09T13:53:05;17.83;;;3.78;;
72949;SDS011;64868;45.710;9.590;2023-10-09T13:55:40;18.85;;;2.92;;
72949;SDS011;64868;45.710;9.590;2023-10-09T13:58:11;20.05;;;3.65;;
72949;SDS011;64868;45.710;9.590;2023-10-09T14:00:48;16.55;;;3.17;;
72949;SDS011;64868;45.710;9.590;2023-10-09T14:03:20;21.63;;;3.53;;
72949;SDS011;64868;45.710;9.590;2023-10-09T14:05:54;16.90;;;2.92;;
72949;SDS011;64868;45.710;9.590;2023-10-09T14:08:37;24.75;;;3.70;;
72949;SDS011;64868;45.710;9.590;2023-10-09T14:11:08;27.20;;;3.78;;
72949;SDS011;64868;45.710;9.590;2023-10-09T14:16:46;25.75;;;3.70;;
72949;SDS011;64868;45.710;9.590;2023-10-09T14:19:24;22.50;;;3.58;;
72949;SDS011;64868;45.710;9.590;2023-10-09T14:22:05;19.45;;;3.45;;
72949;SDS011;64868;45.710;9.590;2023-10-09T14:24:33;13.02;;;3.30;;
72949;SDS011;64868;45.710;9.590;2023-10-09T14:27:06;19.02;;;3.35;;
72949;SDS011;64868;45.710;9.590;2023-10-09T14:29:38;19.30;;;3.42;;
72949;SDS011;64868;45.710;9.590;2023-10-09T14:32:27;23.65;;;3.63;;
72949;SDS011;64868;45.710;9.590;2023-10-09T14:38:07;18.30;;;3.40;;
72949;SDS011;64868;45.710;9.590;2023-10-09T14:40:43;23.27;;;3.67;;
72949;SDS011;64868;45.710;9.590;2023-10-09T14:43:32;43.25;;;4.53;;
72949;SDS011;64868;45.710;9.590;2023-10-09T14:46:05;21.70;;;3.38;;
72949;SDS011;64868;45.710;9.590;2023-10-09T14:48:42;22.63;;;3.38;;
72949;SDS011;64868;45.710;9.590;2023-10-09T14:51:28;23.15;;;3.67;;
72949;SDS011;64868;45.710;9.590;2023-10-09T14:54:01;17.88;;;3.63;;
72949;SDS011;64868;45.710;9.590;2023-10-09T14:56:34;22.38;;;3.10;;
72949;SDS011;64868;45.710;9.590;2023-10-09T14:59:05;20.58;;;3.42;;
72949;SDS011;64868;45.710;9.590;2023-10-09T15:01:38;18.33;;;3.33;;
72949;SDS011;64868;45.710;9.590;2023-10-09T15:04:11;19.40;;;3.40;;
72949;SDS011;64868;45.710;9.590;2023-10-09T15:06:52;20.00;;;3.40;;
72949;SDS011;64868;45.710;9.590;2023-10-09T15:09:22;20.92;;;4.03;;
72949;SDS011;64868;45.710;9.590;2023-10-09T15:11:55;21.33;;;3.53;;
72949;SDS011;64868;45.710;9.590;2023-10-09T15:14:28;19.73;;;3.40;;
72949;SDS011;64868;45.710;9.590;2023-10-09T15:17:01;21.42;;;3.72;;
72949;SDS011;64868;45.710;9.590;2023-10-09T15:19:33;21.45;;;3.63;;
72949;SDS011;64868;45.710;9.590;2023-10-09T15:22:04;17.55;;;3.45;;
72949;SDS011;64868;45.710;9.590;2023-10-09T15:24:37;22.67;;;3.80;;
72949;SDS011;64868;45.710;9.590;2023-10-09T15:27:23;17.77;;;3.63;;
72949;SDS011;64868;45.710;9.590;2023-10-09T15:29:56;32.28;;;3.85;;
72949;SDS011;64868;45.710;9.590;2023-10-09T15:32:29;19.98;;;3.65;;
72949;SDS011;64868;45.710;9.590;2023-10-09T15:35:02;19.77;;;3.17;;
72949;SDS011;64868;45.710;9.590;2023-10-09T15:37:51;17.73;;;3.60;;
72949;SDS011;64868;45.710;9.590;2023-10-09T15:40:23;23.55;;;3.63;;
72949;SDS011;64868;45.710;9.590;2023-10-09T15:45:46;18.92;;;3.53;;
72949;SDS011;64868;45.710;9.590;2023-10-09T15:48:18;16.85;;;3.10;;
72949;SDS011;64868;45.710;9.590;2023-10-09T15:50:51;17.52;;;3.13;;
72949;SDS011;64868;45.710;9.590;2023-10-09T15:53:43;23.75;;;3.92;;
72949;SDS011;64868;45.710;9.590;2023-10-09T15:56:17;19.08;;;3.60;;
72949;SDS011;64868;45.710;9.590;2023-10-09T15:58:48;49.08;;;4.72;;
72949;SDS011;64868;45.710;9.590;2023-10-09T16:01:21;23.77;;;3.88;;
72949;SDS011;64868;45.710;9.590;2023-10-09T16:06:56;19.10;;;2.95;;
72949;SDS011;64868;45.710;9.590;2023-10-09T16:09:28;11.13;;;2.83;;
72949;SDS011;64868;45.710;9.590;2023-10-09T16:12:07;23.40;;;3.60;;
72949;SDS011;64868;45.710;9.590;2023-10-09T16:14:39;18.70;;;4.80;;
72949;SDS011;64868;45.710;9.590;2023-10-09T16:17:12;21.67;;;3.83;;
72949;SDS011;64868;45.710;9.590;2023-10-09T16:20:01;17.13;;;3.47;;
72949;SDS011;64868;45.710;9.590;2023-10-09T16:22:38;19.83;;;3.63;;
72949;SDS011;64868;45.710;9.590;2023-10-09T16:25:27;20.80;;;3.80;;
72949;SDS011;64868;45.710;9.590;2023-10-09T16:27:59;23.05;;;3.67;;
72949;SDS011;64868;45.710;9.590;2023-10-09T16:30:38;16.15;;;3.25;;
72949;SDS011;64868;45.710;9.590;2023-10-09T16:33:10;18.25;;;2.95;;
72949;SDS011;64868;45.710;9.590;2023-10-09T16:35:59;21.55;;;3.58;;
72949;SDS011;64868;45.710;9.590;2023-10-09T16:38:31;12.63;;;2.80;;
72949;SDS011;64868;45.710;9.590;2023-10-09T16:41:06;18.65;;;2.80;;
72949;SDS011;64868;45.710;9.590;2023-10-09T16:43:39;18.02;;;3.28;;
72949;SDS011;64868;45.710;9.590;2023-10-09T16:46:09;15.52;;;3.00;;
72949;SDS011;64868;45.710;9.590;2023-10-09T16:51:50;19.40;;;3.45;;
72949;SDS011;64868;45.710;9.590;2023-10-09T16:54:23;17.73;;;3.17;;
72949;SDS011;64868;45.710;9.590;2023-10-09T16:56:55;15.15;;;3.30;;
72949;SDS011;64868;45.710;9.590;2023-10-09T16:59:28;16.75;;;3.22;;
72949;SDS011;64868;45.710;9.590;2023-10-09T17:02:01;22.73;;;4.78;;
72949;SDS011;64868;45.710;9.590;2023-10-09T17:04:35;16.77;;;4.05;;
72949;SDS011;64868;45.710;9.590;2023-10-09T17:07:07;17.52;;;3.78;;
72949;SDS011;64868;45.710;9.590;2023-10-09T17:09:45;19.67;;;5.82;;
72949;SDS011;64868;45.710;9.590;2023-10-09T17:12:15;22.65;;;4.55;;
72949;SDS011;64868;45.710;9.590;2023-10-09T17:14:47;22.80;;;4.28;;
72949;SDS011;64868;45.710;9.590;2023-10-09T17:17:36;23.38;;;4.45;;
72949;SDS011;64868;45.710;9.590;2023-10-09T17:20:10;14.13;;;3.78;;
72949;SDS011;64868;45.710;9.590;2023-10-09T17:22:46;22.77;;;4.57;;
72949;SDS011;64868;45.710;9.590;2023-10-09T17:25:19;15.65;;;3.30;;
72949;SDS011;64868;45.710;9.590;2023-10-09T17:27:48;21.00;;;3.47;;
72949;SDS011;64868;45.710;9.590;2023-10-09T17:30:20;14.50;;;3.85;;
72949;SDS011;64868;45.710;9.590;2023-10-09T17:32:54;17.77;;;3.00;;
72949;SDS011;64868;45.710;9.590;2023-10-09T17:35:26;19.90;;;3.85;;
72949;SDS011;64868;45.710;9.590;2023-10-09T17:41:05;15.00;;;3.10;;
72949;SDS011;64868;45.710;9.590;2023-10-09T17:43:41;14.88;;;3.30;;
72949;SDS011;64868;45.710;9.590;2023-10-09T17:46:14;13.27;;;2.95;;
72949;SDS011;64868;45.710;9.590;2023-10-09T17:48:44;14.68;;;3.55;;